Time;durP1;ratioP1;P1;durP2;ratioP2;P2;SDS_P1;SDS_P2;PMS_P1;PMS_P2;Temp;Humidity;BMP_temperature;BMP_pressure;BME280_temperature;BME280_humidity;BME280_pressure;Samples;Min_cycle;Max_cycle;Signal;HPM_P1;HPM_P2
2021/11/14 00:02:32;;;;;;;;;;;;;;;27.51;57.30;101042.91;5036458;28;65814;-35
2021/11/14 00:05:03;;;;;;;;;;;;;;;27.52;57.42;101044.56;5036313;28;70020;-35
2021/11/14 00:07:33;;;;;;;;;;;;;;;27.57;57.49;101046.69;5035346;28;65770;-35
2021/11/14 00:10:05;;;;;;;;;;;;;;;27.62;57.78;101061.25;5035804;28;70699;-34
2021/11/14 00:12:36;;;;;;;;;;;;;;;27.67;57.85;101057.16;5036579;28;66369;-35
2021/11/14 00:15:07;;;;;;;;;;;;;;;27.70;58.02;101067.56;5048641;28;69992;-35
2021/11/14 00:17:38;;;;;;;;;;;;;;;27.75;58.20;101070.47;5025418;28;65636;-35
2021/11/14 00:20:10;;;;;;;;;;;;;;;27.79;58.30;101066.38;5044398;28;70059;-34
2021/11/14 00:22:41;;;;;;;;;;;;;;;27.81;58.88;101073.28;5028202;28;66517;-35
2021/11/14 00:25:13;;;;;;;;;;;;;;;27.86;59.12;101078.09;5027018;28;70513;-36
2021/11/14 00:27:48;;;;;;;;;;;;;;;27.90;59.15;101076.66;5039993;28;66445;-36
2021/11/14 00:30:21;;;;;;;;;;;;;;;27.94;59.32;101080.63;5017559;28;69384;-35
2021/11/14 00:32:52;;;;;;;;;;;;;;;27.98;59.84;101081.91;5027638;28;65787;-36
2021/11/14 00:35:23;;;;;;;;;;;;;;;28.02;59.96;101085.03;5027235;28;69921;-35
2021/11/14 00:37:54;;;;;;;;;;;;;;;28.05;60.06;101088.19;5030296;28;65763;-35
2021/11/14 00:40:26;;;;;;;;;;;;;;;28.11;60.17;101085.72;5034383;28;71288;-35
2021/11/14 00:42:58;;;;;;;;;;;;;;;28.19;63.80;101091.78;5030988;28;65997;-35
2021/11/14 00:45:29;;;;;;;;;;;;;;;28.28;66.35;101098.72;5035541;28;69265;-36
2021/11/14 00:48:00;;;;;;;;;;;;;;;28.36;68.26;101104.97;5035050;28;65607;-35
2021/11/14 00:50:32;;;;;;;;;;;;;;;28.40;68.85;101101.69;5024303;28;70139;-35
2021/11/14 00:53:02;;;;;;;;;;;;;;;28.40;69.61;101095.47;5025645;28;66954;-35
2021/11/14 00:55:34;;;;;;;;;;;;;;;28.47;70.21;101110.72;5024542;28;70468;-37
2021/11/14 00:58:04;;;;;;;;;;;;;;;28.50;70.32;101123.78;5024584;28;66078;-36
2021/11/14 01:00:36;;;;;;;;;;;;;;;28.52;70.76;101121.72;5026426;28;70301;-36
2021/11/14 01:03:07;;;;;;;;;;;;;;;28.51;70.86;101111.97;5034867;28;66876;-36
2021/11/14 01:05:41;;;;;;;;;;;;;;;28.58;71.03;101121.94;5032721;28;70270;-36
2021/11/14 01:08:12;;;;;;;;;;;;;;;28.60;71.17;101118.03;5033238;28;65531;-36
2021/11/14 01:10:47;;;;;;;;;;;;;;;28.63;71.70;101119.50;5034117;28;70045;-36
2021/11/14 01:13:19;;;;;;;;;;;;;;;28.61;71.63;101126.94;5037050;28;66034;-36
2021/11/14 01:15:50;;;;;;;;;;;;;;;28.69;71.87;101138.41;5034928;28;70323;-35
2021/11/14 01:18:21;;;;;;;;;;;;;;;28.69;71.71;101132.19;5027462;28;65623;-36
2021/11/14 01:20:53;;;;;;;;;;;;;;;28.72;72.21;101134.47;5035701;28;69908;-36
2021/11/14 01:23:24;;;;;;;;;;;;;;;28.74;71.96;101135.13;5034950;28;66265;-36
2021/11/14 01:25:54;;;;;;;;;;;;;;;28.76;72.47;101127.66;5033073;28;69939;-36
2021/11/14 01:28:27;;;;;;;;;;;;;;;28.75;72.95;101120.59;5031283;28;59892;-37
2021/11/14 01:30:58;;;;;;;;;;;;;;;28.70;73.81;101128.47;5030508;28;70438;-36
2021/11/14 01:33:30;;;;;;;;;;;;;;;28.64;74.00;101129.25;5034309;28;65182;-37
2021/11/14 01:36:00;;;;;;;;;;;;;;;28.60;74.44;101123.41;5034895;28;70351;-38
2021/11/14 01:38:31;;;;;;;;;;;;;;;28.57;74.92;101123.81;5029024;28;66427;-37
2021/11/14 01:41:04;;;;;;;;;;;;;;;28.59;74.94;101112.84;5025054;28;70270;-37
2021/11/14 01:43:43;;;;;;;;;;;;;;;28.59;74.94;101116.38;5025067;28;65549;-38
2021/11/14 01:46:15;;;;;;;;;;;;;;;28.60;74.72;101114.50;5024259;28;69891;-38
2021/11/14 01:48:46;;;;;;;;;;;;;;;28.64;74.96;101108.50;5025716;28;66926;-37
2021/11/14 01:51:17;;;;;;;;;;;;;;;28.63;74.78;101116.78;5032699;28;70073;-36
2021/11/14 01:53:48;;;;;;;;;;;;;;;28.63;74.81;101111.41;5035460;28;65753;-38
2021/11/14 01:56:19;;;;;;;;;;;;;;;28.60;74.70;101109.09;5026155;28;69619;-37
2021/11/14 01:58:50;;;;;;;;;;;;;;;28.61;74.78;101097.25;5030472;28;66054;-37
2021/11/14 02:01:25;;;;;;;;;;;;;;;28.60;75.19;101107.22;5028357;28;69152;-37
2021/11/14 02:03:57;;;;;;;;;;;;;;;28.57;74.63;101101.41;5028321;28;66687;-38
2021/11/14 02:06:28;;;;;;;;;;;;;;;28.63;74.51;101112.22;5020925;28;69908;-36
2021/11/14 02:08:59;;;;;;;;;;;;;;;28.63;74.75;101111.41;5026023;28;65332;-37
2021/11/14 02:11:30;;;;;;;;;;;;;;;28.69;74.79;101105.19;5025805;28;69376;-37
2021/11/14 02:14:00;;;;;;;;;;;;;;;28.75;74.52;101107.09;5030059;28;66975;-36
2021/11/14 02:16:30;;;;;;;;;;;;;;;28.80;74.52;101101.91;5024035;28;70588;-37
2021/11/14 02:19:01;;;;;;;;;;;;;;;28.85;73.91;101101.34;5027642;28;66325;-37
2021/11/14 02:21:32;;;;;;;;;;;;;;;28.86;73.54;101098.44;5033824;28;70302;-37
2021/11/14 02:24:03;;;;;;;;;;;;;;;28.91;73.96;101098.66;5022888;28;66462;-38
2021/11/14 02:26:34;;;;;;;;;;;;;;;28.91;74.11;101112.16;5032503;28;70335;-36
2021/11/14 02:29:04;;;;;;;;;;;;;;;28.88;73.82;101107.16;5032479;28;67162;-37
2021/11/14 02:31:35;;;;;;;;;;;;;;;28.91;73.75;101101.34;5023146;28;70609;-37
2021/11/14 02:34:05;;;;;;;;;;;;;;;28.92;73.80;101094.94;5032042;28;66533;-37
2021/11/14 02:36:36;;;;;;;;;;;;;;;28.92;73.49;101094.94;5033867;28;69232;-36
2021/11/14 02:39:07;;;;;;;;;;;;;;;28.98;74.20;101095.16;5038273;28;65467;-37
2021/11/14 02:41:37;;;;;;;;;;;;;;;29.04;74.06;101097.06;5033738;28;70377;-36
2021/11/14 02:44:08;;;;;;;;;;;;;;;29.10;73.75;101096.25;5037442;28;66516;-36
2021/11/14 02:46:38;;;;;;;;;;;;;;;29.15;73.99;101099.19;5036264;28;70001;-36
2021/11/14 02:49:09;;;;;;;;;;;;;;;29.21;73.23;101090.25;5029853;28;66368;-37
2021/11/14 02:51:39;;;;;;;;;;;;;;;29.25;73.54;101094.22;5025794;28;69873;-36
2021/11/14 02:54:10;;;;;;;;;;;;;;;29.28;73.29;101085.72;5029985;28;66264;-36
2021/11/14 02:56:40;;;;;;;;;;;;;;;29.32;72.91;101084.25;5031302;28;69620;-36
2021/11/14 02:59:11;;;;;;;;;;;;;;;29.35;72.59;101091.13;5028736;28;65415;-37
2021/11/14 03:01:43;;;;;;;;;;;;;;;29.38;72.91;101083.44;5031333;28;70369;-37
2021/11/14 03:04:18;;;;;;;;;;;;;;;29.43;72.29;101073.91;5030435;28;66248;-37
2021/11/14 03:06:52;;;;;;;;;;;;;;;29.44;72.67;101078.25;5023538;28;69943;-36
2021/11/14 03:09:23;;;;;;;;;;;;;;;29.45;72.26;101067.25;5030242;28;66330;-38
2021/11/14 03:11:56;;;;;;;;;;;;;;;29.46;72.57;101063.50;5035602;28;69264;-36
2021/11/14 03:14:44;;;;;;;;;;;;;;;29.48;72.65;101072.25;5034686;28;66629;-36
2021/11/14 03:17:15;;;;;;;;;;;;;;;29.49;72.17;101067.66;5035963;28;70196;-36
2021/11/14 03:19:46;;;;;;;;;;;;;;;29.52;72.46;101061.84;5036045;28;65349;-35
2021/11/14 03:22:16;;;;;;;;;;;;;;;29.53;72.35;101060.78;5035521;28;70074;-36
2021/11/14 03:24:48;;;;;;;;;;;;;;;29.55;71.91;101061.41;5036058;28;65786;-37
2021/11/14 03:27:21;;;;;;;;;;;;;;;29.57;71.77;101059.34;5026983;28;69648;-37
2021/11/14 03:29:51;;;;;;;;;;;;;;;29.58;71.65;101051.00;5031221;28;66765;-37
2021/11/14 03:32:22;;;;;;;;;;;;;;;29.60;71.68;101054.34;5029862;28;69812;-36
2021/11/14 03:34:52;;;;;;;;;;;;;;;29.63;72.00;101053.13;5032551;28;65108;-37
2021/11/14 03:37:23;;;;;;;;;;;;;;;29.64;71.93;101038.56;5025503;28;70693;-36
2021/11/14 03:39:54;;;;;;;;;;;;;;;29.66;71.86;101039.19;5026165;28;65386;-36
2021/11/14 03:42:25;;;;;;;;;;;;;;;29.67;71.46;101038.19;5034892;28;70380;-36
2021/11/14 03:44:55;;;;;;;;;;;;;;;29.69;71.71;101029.84;5036076;28;66511;-36
2021/11/14 03:47:25;;;;;;;;;;;;;;;29.71;71.60;101025.06;5025999;28;70618;-37
2021/11/14 03:49:56;;;;;;;;;;;;;;;29.72;71.49;101014.03;5029097;28;65378;-37
2021/11/14 03:52:26;;;;;;;;;;;;;;;29.75;70.95;101007.38;5031223;28;69709;-36
2021/11/14 03:54:57;;;;;;;;;;;;;;;29.78;70.61;101002.41;5032228;28;65392;-37
2021/11/14 03:57:28;;;;;;;;;;;;;;;29.80;70.28;101002.16;5044421;28;69096;-38
2021/11/14 03:59:59;;;;;;;;;;;;;;;29.84;70.02;101001.56;5033390;28;66994;-39
2021/11/14 04:02:30;;;;;;;;;;;;;;;29.89;69.47;100997.38;5036772;28;70488;-38
2021/11/14 04:05:00;;;;;;;;;;;;;;;29.94;69.67;100989.47;5035183;28;65646;-37
2021/11/14 04:07:31;;;;;;;;;;;;;;;29.91;69.70;100984.47;5022939;28;69318;-37
2021/11/14 04:10:03;;;;;;;;;;;;;;;29.85;70.19;100975.34;5031550;28;65976;-38
2021/11/14 04:12:33;;;;;;;;;;;;;;;29.89;69.62;100973.03;5033009;28;70338;-37
2021/11/14 04:15:08;;;;;;;;;;;;;;;29.93;69.54;100971.59;5036561;28;66863;-36
2021/11/14 04:17:39;;;;;;;;;;;;;;;29.93;70.11;100960.75;5027513;28;69933;-37
2021/11/14 04:20:11;;;;;;;;;;;;;;;29.96;69.99;100955.75;5031562;28;66782;-38
2021/11/14 04:22:41;;;;;;;;;;;;;;;30.00;69.83;100950.75;5021584;28;70362;-37
2021/11/14 04:25:11;;;;;;;;;;;;;;;30.02;69.57;100948.66;5025535;28;66144;-37
2021/11/14 04:27:42;;;;;;;;;;;;;;;30.09;68.24;100944.06;5031201;28;70745;-37
2021/11/14 04:30:12;;;;;;;;;;;;;;;30.10;68.30;100940.31;5029008;28;66455;-37
2021/11/14 04:32:43;;;;;;;;;;;;;;;30.11;69.36;100941.97;5035262;28;69349;-37
2021/11/14 04:35:14;;;;;;;;;;;;;;;30.11;68.74;100931.13;5035055;28;65741;-37
2021/11/14 04:37:48;;;;;;;;;;;;;;;30.14;68.82;100925.28;5036395;28;69386;-37
2021/11/14 04:40:21;;;;;;;;;;;;;;;30.15;69.22;100926.97;5027933;28;66307;-37
2021/11/14 04:42:53;;;;;;;;;;;;;;;30.16;68.40;100923.22;5033463;28;70202;-36
2021/11/14 04:45:23;;;;;;;;;;;;;;;30.16;68.38;100919.69;5035466;28;66630;-37
2021/11/14 04:47:54;;;;;;;;;;;;;;;30.16;67.87;100907.00;5032250;28;69982;-37
2021/11/14 04:50:24;;;;;;;;;;;;;;;30.18;67.69;100913.03;5031365;28;65515;-37
2021/11/14 04:52:55;;;;;;;;;;;;;;;30.19;67.94;100906.56;5038767;28;70204;-36
2021/11/14 04:55:26;;;;;;;;;;;;;;;30.24;68.03;100905.94;5029150;28;65803;-37
2021/11/14 04:57:56;;;;;;;;;;;;;;;30.18;67.07;100899.50;5023019;28;70121;-37
2021/11/14 05:00:28;;;;;;;;;;;;;;;30.24;67.17;100895.94;5041632;28;66036;-37
2021/11/14 05:02:59;;;;;;;;;;;;;;;30.25;67.20;100900.31;5028449;28;70355;-38
2021/11/14 05:05:29;;;;;;;;;;;;;;;30.27;67.59;100892.81;5025617;28;66604;-37
2021/11/14 05:08:00;;;;;;;;;;;;;;;30.22;67.51;100879.09;5023858;28;70075;-38
2021/11/14 05:10:30;;;;;;;;;;;;;;;30.30;67.77;100885.31;5026666;28;66038;-37
2021/11/14 05:13:01;;;;;;;;;;;;;;;30.30;67.52;100874.50;5032552;28;70221;-38
2021/11/14 05:15:32;;;;;;;;;;;;;;;30.33;67.75;100874.06;5027864;28;66518;-37
2021/11/14 05:18:03;;;;;;;;;;;;;;;30.34;68.04;100865.72;5020939;28;70323;-36
2021/11/14 05:20:35;;;;;;;;;;;;;;;30.34;68.22;100864.88;5032481;28;66259;-37
2021/11/14 05:23:05;;;;;;;;;;;;;;;30.36;68.65;100868.19;5022690;28;69184;-37
2021/11/14 05:25:36;;;;;;;;;;;;;;;30.36;68.48;100852.78;5022068;28;68315;-39
2021/11/14 05:28:07;;;;;;;;;;;;;;;30.40;67.86;100853.22;5010213;28;69776;-38
2021/11/14 05:30:39;;;;;;;;;;;;;;;30.37;67.96;100848.19;5018058;28;66334;-38
2021/11/14 05:33:10;;;;;;;;;;;;;;;30.37;68.66;100848.19;5024052;28;70022;-38
2021/11/14 05:35:41;;;;;;;;;;;;;;;30.36;68.03;100839.25;5022949;28;66058;-37
2021/11/14 05:38:11;;;;;;;;;;;;;;;30.35;68.68;100840.31;5031184;28;69027;-38
2021/11/14 05:40:42;;;;;;;;;;;;;;;30.35;68.51;100834.09;5033916;28;65494;-38
2021/11/14 05:43:13;;;;;;;;;;;;;;;30.33;68.61;100825.34;5029099;28;70216;-37
2021/11/14 05:45:43;;;;;;;;;;;;;;;30.54;67.97;100822.28;5026765;28;66327;-38
2021/11/14 05:48:16;;;;;;;;;;;;;;;30.49;64.67;100814.00;5037697;28;69506;-37
2021/11/14 05:50:47;;;;;;;;;;;;;;;30.40;61.88;100820.72;5029059;28;66469;-36
2021/11/14 05:53:17;;;;;;;;;;;;;;;30.21;59.43;100815.19;5038516;28;69260;-36
2021/11/14 05:55:48;;;;;;;;;;;;;;;30.14;58.21;100813.56;5025498;28;65381;-36
2021/11/14 05:58:35;;;;;;;;;;;;;;;30.03;57.77;100809.66;5032529;28;69947;-38
2021/11/14 06:03:55;;;;;;;;;;;;;;;29.81;53.77;100799.19;5033768;28;70156;-36
2021/11/14 06:06:26;;;;;;;;;;;;;;;29.76;55.98;100798.97;5032792;28;65694;-37
2021/11/14 06:09:09;;;;;;;;;;;;;;;29.68;55.36;100784.88;5026624;28;70070;-38
2021/11/14 06:11:39;;;;;;;;;;;;;;;29.60;54.17;100785.91;5025210;28;66819;-37
2021/11/14 06:14:10;;;;;;;;;;;;;;;29.50;53.13;100777.41;5035284;28;70828;-37
2021/11/14 06:16:40;;;;;;;;;;;;;;;29.36;51.88;100782.91;5029764;28;66304;-37
2021/11/14 06:19:11;;;;;;;;;;;;;;;29.28;51.74;100780.41;5033263;28;69940;-38
2021/11/14 06:21:42;;;;;;;;;;;;;;;29.18;50.40;100771.91;5028325;28;65334;-37
2021/11/14 06:24:12;;;;;;;;;;;;;;;29.11;50.34;100773.78;5030486;28;70023;-37
2021/11/14 06:26:44;;;;;;;;;;;;;;;29.00;49.65;100769.00;5029597;28;66413;-37
2021/11/14 06:29:14;;;;;;;;;;;;;;;28.94;48.98;100768.78;5027336;28;69639;-37
2021/11/14 06:31:45;;;;;;;;;;;;;;;28.88;48.73;100769.63;5030257;28;65620;-38
2021/11/14 06:34:15;;;;;;;;;;;;;;;28.80;49.08;100767.16;5028777;28;69942;-38
2021/11/14 06:36:46;;;;;;;;;;;;;;;28.73;48.74;100761.78;5039622;28;66792;-37
2021/11/14 06:39:16;;;;;;;;;;;;;;;28.63;47.60;100765.91;5038971;28;70896;-39
2021/11/14 06:41:47;;;;;;;;;;;;;;;28.57;47.88;100756.78;5040758;28;66558;-37
2021/11/14 06:44:17;;;;;;;;;;;;;;;28.45;47.84;100753.88;5040781;28;69688;-37
2021/11/14 06:46:47;;;;;;;;;;;;;;;28.43;47.66;100750.56;5039367;28;67174;-37
2021/11/14 06:49:18;;;;;;;;;;;;;;;28.39;48.05;100738.50;5034724;28;70591;-38
2021/11/14 06:51:49;;;;;;;;;;;;;;;28.34;47.68;100746.38;5040237;28;64838;-37
2021/11/14 06:54:19;;;;;;;;;;;;;;;28.29;47.89;100735.38;5040531;28;69469;-37
2021/11/14 06:56:49;;;;;;;;;;;;;;;28.22;47.07;100737.22;5040378;28;66619;-37
2021/11/14 06:59:20;;;;;;;;;;;;;;;28.16;47.56;100732.66;5040736;28;70313;-37
2021/11/14 07:01:51;;;;;;;;;;;;;;;28.14;47.69;100729.31;5039076;28;66764;-38
2021/11/14 07:04:21;;;;;;;;;;;;;;;28.13;47.81;100727.69;5034754;28;70709;-38
2021/11/14 07:06:52;;;;;;;;;;;;;;;28.09;47.67;100721.03;5038334;28;66473;-37
2021/11/14 07:09:22;;;;;;;;;;;;;;;28.05;46.80;100726.84;5040598;28;70194;-38
2021/11/14 07:11:56;;;;;;;;;;;;;;;28.00;46.78;100723.06;5040634;28;66375;-37
2021/11/14 07:14:27;;;;;;;;;;;;;;;27.97;46.71;100721.66;5038738;28;70101;-37
2021/11/14 07:16:58;;;;;;;;;;;;;;;27.95;46.35;100718.31;5040293;28;66705;-38
2021/11/14 07:19:28;;;;;;;;;;;;;;;27.92;46.74;100715.22;5040161;28;69027;-38
2021/11/14 07:21:59;;;;;;;;;;;;;;;27.88;46.60;100714.75;5039597;28;66529;-37
2021/11/14 07:24:29;;;;;;;;;;;;;;;27.85;46.70;100715.19;5054808;28;69918;-39
2021/11/14 07:27:00;;;;;;;;;;;;;;;27.82;46.54;100710.19;5038421;28;66415;-37
2021/11/14 07:29:30;;;;;;;;;;;;;;;27.77;46.23;100713.47;5031630;28;69327;-38
2021/11/14 07:32:01;;;;;;;;;;;;;;;27.75;46.08;100712.00;5033902;28;66467;-38
2021/11/14 07:34:31;;;;;;;;;;;;;;;27.72;46.17;100698.94;5039711;28;70575;-39
2021/11/14 07:37:02;;;;;;;;;;;;;;;27.66;46.03;100707.84;5038110;28;67161;-37
2021/11/14 07:39:35;;;;;;;;;;;;;;;27.65;46.10;100712.41;5039476;28;69494;-38
2021/11/14 07:42:06;;;;;;;;;;;;;;;27.63;45.50;100707.19;5040096;28;65801;-38
2021/11/14 07:44:36;;;;;;;;;;;;;;;27.57;45.80;100708.00;5039375;28;70522;-39
2021/11/14 07:47:07;;;;;;;;;;;;;;;27.55;45.50;100703.84;5040121;28;65807;-39
2021/11/14 07:49:37;;;;;;;;;;;;;;;27.55;45.92;100710.09;5039685;28;70032;-38
2021/11/14 07:52:08;;;;;;;;;;;;;;;27.52;45.90;100705.09;5037867;28;66753;-36
2021/11/14 07:54:38;;;;;;;;;;;;;;;27.53;45.39;100709.47;5027233;28;69948;-37
2021/11/14 07:57:09;;;;;;;;;;;;;;;27.48;45.55;100701.16;5031437;28;66954;-38
2021/11/14 07:59:40;;;;;;;;;;;;;;;27.46;45.50;100705.91;5026858;28;70222;-37
2021/11/14 08:02:11;;;;;;;;;;;;;;;27.47;45.48;100707.59;5030935;28;65303;-37
2021/11/14 08:04:41;;;;;;;;;;;;;;;27.42;45.61;100703.84;5025077;28;70371;-39
2021/11/14 08:07:14;;;;;;;;;;;;;;;27.42;45.63;100709.22;5027318;28;66742;-38
2021/11/14 08:09:45;;;;;;;;;;;;;;;27.39;45.40;100700.50;5031684;28;70078;-38
2021/11/14 08:12:15;;;;;;;;;;;;;;;27.35;45.51;100698.41;5030081;28;66554;-36
2021/11/14 08:14:46;;;;;;;;;;;;;;;27.37;45.76;100696.34;5032224;28;68883;-38
2021/11/14 08:17:16;;;;;;;;;;;;;;;27.31;45.44;100687.19;5031193;28;66701;-38
2021/11/14 08:19:47;;;;;;;;;;;;;;;27.32;45.53;100679.94;5033419;28;69791;-37
2021/11/14 08:22:19;;;;;;;;;;;;;;;27.31;45.27;100675.59;5026913;28;66380;-37
2021/11/14 08:24:50;;;;;;;;;;;;;;;27.30;45.09;100682.00;5028957;28;70326;-37
2021/11/14 08:27:21;;;;;;;;;;;;;;;27.29;45.38;100669.59;5029883;28;66950;-37
2021/11/14 08:29:51;;;;;;;;;;;;;;;27.26;45.16;100678.06;5020299;28;70022;-37
2021/11/14 08:32:22;;;;;;;;;;;;;;;27.17;45.05;100667.47;5030535;28;66688;-37
2021/11/14 08:34:53;;;;;;;;;;;;;;;27.25;45.16;100677.25;5046337;28;70848;-39
2021/11/14 08:37:23;;;;;;;;;;;;;;;27.24;45.30;100674.72;5027579;28;66680;-37
2021/11/14 08:39:54;;;;;;;;;;;;;;;27.09;45.41;100661.38;5027383;28;71232;-38
2021/11/14 08:42:24;;;;;;;;;;;;;;;27.21;46.10;100677.84;5027130;28;65725;-37
2021/11/14 08:44:55;;;;;;;;;;;;;;;27.24;47.31;100678.25;5040518;28;71032;-38
2021/11/14 08:47:26;;;;;;;;;;;;;;;27.25;47.25;100682.63;5037462;28;65403;-38
2021/11/14 08:49:56;;;;;;;;;;;;;;;27.25;48.13;100687.19;5039807;28;69925;-37
2021/11/14 08:52:28;;;;;;;;;;;;;;;27.29;48.69;100683.88;5034105;28;65573;-36
2021/11/14 08:54:58;;;;;;;;;;;;;;;27.28;47.60;100684.09;5036452;28;69397;-35
2021/11/14 08:57:28;;;;;;;;;;;;;;;27.26;46.61;100686.16;5038698;28;65602;-36
2021/11/14 08:59:59;;;;;;;;;;;;;;;27.23;46.19;100691.94;5039179;28;70176;-35
2021/11/14 09:02:29;;;;;;;;;;;;;;;27.21;45.60;100694.00;5033115;28;66350;-35
2021/11/14 09:05:00;;;;;;;;;;;;;;;27.15;46.14;100699.09;5043462;28;70501;-36
2021/11/14 09:07:32;;;;;;;;;;;;;;;27.16;45.90;100698.13;5035777;28;65519;-36
2021/11/14 09:10:03;;;;;;;;;;;;;;;27.11;45.56;100703.25;5027656;28;70089;-36
2021/11/14 09:12:34;;;;;;;;;;;;;;;27.10;44.89;100700.72;5032440;28;66293;-36
2021/11/14 09:15:05;;;;;;;;;;;;;;;27.11;44.53;100707.81;5036672;28;70102;-36
2021/11/14 09:17:36;;;;;;;;;;;;;;;27.09;44.85;100710.69;5044252;28;65927;-35
2021/11/14 09:20:07;;;;;;;;;;;;;;;27.09;44.79;100710.69;5043721;28;70023;-36
2021/11/14 09:22:38;;;;;;;;;;;;;;;27.06;44.48;100704.88;5040455;28;66327;-36
2021/11/14 09:25:10;;;;;;;;;;;;;;;27.02;44.62;100707.09;5037662;28;70354;-36
2021/11/14 09:27:40;;;;;;;;;;;;;;;27.00;44.80;100706.50;5041007;28;66748;-35
2021/11/14 09:30:11;;;;;;;;;;;;;;;26.94;44.55;100713.50;5036802;28;70165;-35
2021/11/14 09:32:42;;;;;;;;;;;;;;;27.03;45.79;100716.03;5027466;28;66551;-36
2021/11/14 09:35:12;;;;;;;;;;;;;;;27.16;46.92;100722.34;5026906;28;69095;-35
2021/11/14 09:37:42;;;;;;;;;;;;;;;27.34;48.16;100726.38;5028703;28;65852;-35
2021/11/14 09:43:38;;;;;;;;;;;;;;;27.66;50.39;100721.31;5003426;28;65707;-36
2021/11/14 09:46:26;;;;;;;;;;;;;;;27.83;51.11;100733.41;5033522;28;70532;-43
2021/11/14 09:49:07;;;;;;;;;;;;;;;27.94;51.71;100732.00;5033775;28;66501;-36
2021/11/14 09:51:41;;;;;;;;;;;;;;;28.05;51.89;100737.63;5032938;28;70187;-36
2021/11/14 09:54:12;;;;;;;;;;;;;;;28.15;52.67;100741.78;5034575;28;65856;-36
2021/11/14 09:56:42;;;;;;;;;;;;;;;28.24;53.05;100751.34;5039487;28;69440;-35
2021/11/14 10:02:22;;;;;;;;;;;;;;;28.41;53.79;100743.66;5035182;28;69463;-36
2021/11/14 10:04:53;;;;;;;;;;;;;;;28.48;54.22;100747.25;5024109;28;65868;-35
2021/11/14 10:07:24;;;;;;;;;;;;;;;28.56;54.52;100743.53;5022278;28;70144;-36
2021/11/14 10:09:55;;;;;;;;;;;;;;;28.63;55.41;100750.56;5029398;28;66581;-36
2021/11/14 10:12:35;;;;;;;;;;;;;;;28.73;56.40;100750.16;5044935;28;70266;-35
2021/11/14 10:15:39;;;;;;;;;;;;;;;;;;;;;
2021/11/14 10:18:12;;;;;;;;;;;;;;;28.88;58.07;100764.25;5030984;28;70081;-36
2021/11/14 10:20:42;;;;;;;;;;;;;;;28.98;58.49;100763.81;5033146;28;66829;-36
2021/11/14 10:23:17;;;;;;;;;;;;;;;29.04;59.12;100768.41;5035238;28;70123;-37
2021/11/14 10:25:48;;;;;;;;;;;;;;;29.10;59.16;100777.53;5034277;28;66185;-36
2021/11/14 10:28:19;;;;;;;;;;;;;;;29.16;59.87;100782.09;5033782;28;69740;-37
2021/11/14 10:30:53;;;;;;;;;;;;;;;29.21;60.53;100785.00;5033739;28;66527;-36
2021/11/14 10:33:23;;;;;;;;;;;;;;;29.18;60.25;100774.63;5030981;28;68672;-37
2021/11/14 10:35:56;;;;;;;;;;;;;;;29.29;61.34;100792.88;5034450;28;66013;-36
2021/11/14 10:38:29;;;;;;;;;;;;;;;29.33;61.66;100794.09;5028991;28;69883;-36
2021/11/14 10:41:01;;;;;;;;;;;;;;;29.36;62.10;100790.16;5034845;28;66570;-36
2021/11/14 10:43:55;;;;;;;;;;;;;;;29.39;61.72;100797.81;5034227;28;70407;-36
2021/11/14 10:47:21;;;;;;;;;;;;;;;29.43;62.66;100803.66;5017928;28;65955;-38
2021/11/14 10:50:02;;;;;;;;;;;;;;;29.45;63.33;100806.94;5029190;28;69732;-35
2021/11/14 10:52:34;;;;;;;;;;;;;;;29.49;62.93;100808.19;5029876;28;66427;-36
2021/11/14 10:55:08;;;;;;;;;;;;;;;29.51;63.33;100798.03;5029743;28;70332;-36
2021/11/14 10:57:38;;;;;;;;;;;;;;;29.54;63.71;100811.09;5028248;28;66656;-36
2021/11/14 11:00:23;;;;;;;;;;;;;;;29.55;63.54;100818.16;5039997;28;70135;-35
2021/11/14 11:02:56;;;;;;;;;;;;;;;29.57;64.10;100800.69;5029755;28;66041;-36
2021/11/14 11:05:28;;;;;;;;;;;;;;;29.58;64.04;100807.75;5032491;28;71301;-36
2021/11/14 11:07:58;;;;;;;;;;;;;;;29.50;70.14;100815.25;5030731;28;66768;-36
2021/11/14 11:10:37;;;;;;;;;;;;;;;29.34;71.17;100812.00;5037247;28;69862;-37
2021/11/14 11:13:09;;;;;;;;;;;;;;;29.28;71.64;100818.25;5035189;28;66011;-36
2021/11/14 11:15:48;;;;;;;;;;;;;;;29.13;72.08;100820.34;5034465;28;69925;-36
2021/11/14 11:18:20;;;;;;;;;;;;;;;29.07;72.61;100815.78;5024247;28;66116;-35
2021/11/14 11:20:52;;;;;;;;;;;;;;;29.02;72.75;100818.25;5028892;28;70136;-36
2021/11/14 11:23:24;;;;;;;;;;;;;;;28.99;72.81;100819.47;5031854;28;65693;-36
2021/11/14 11:25:56;;;;;;;;;;;;;;;28.95;73.57;100821.78;5033402;28;69810;-36
2021/11/14 11:28:34;;;;;;;;;;;;;;;28.95;73.45;100821.78;5026332;28;66564;-35
2021/11/14 11:31:07;;;;;;;;;;;;;;;28.94;73.64;100832.78;5032224;28;69462;-36
2021/11/14 11:33:38;;;;;;;;;;;;;;;28.84;73.48;100816.19;5024307;28;65882;-36
2021/11/14 11:36:10;;;;;;;;;;;;;;;28.91;73.82;100825.91;5029482;28;70528;-35
2021/11/14 11:38:43;;;;;;;;;;;;;;;28.91;74.32;100828.63;5030054;28;66817;-35
2021/11/14 11:41:15;;;;;;;;;;;;;;;28.92;73.86;100837.56;5031698;28;69422;-35
2021/11/14 11:43:46;;;;;;;;;;;;;;;28.88;74.13;100839.84;5026275;28;65541;-35
2021/11/14 11:46:21;;;;;;;;;;;;;;;28.89;74.08;100835.25;5029604;28;70600;-35
2021/11/14 11:48:57;;;;;;;;;;;;;;;28.89;74.51;100852.31;5025090;28;66775;-35
2021/11/14 11:51:32;;;;;;;;;;;;;;;28.90;74.59;100858.53;5026623;28;70109;-36
2021/11/14 11:54:04;;;;;;;;;;;;;;;28.90;74.58;100866.66;5024419;28;66389;-37
2021/11/14 11:56:37;;;;;;;;;;;;;;;28.88;74.26;100866.84;5023892;28;70020;-35
2021/11/14 11:59:21;;;;;;;;;;;;;;;28.88;74.35;100866.84;5020451;28;66635;-36
2021/11/14 12:02:02;;;;;;;;;;;;;;;28.90;74.40;100869.34;5024721;28;70608;-36
2021/11/14 12:04:35;;;;;;;;;;;;;;;28.89;74.22;100873.94;5037821;28;65707;-36
2021/11/14 12:07:09;;;;;;;;;;;;;;;28.90;74.12;100874.75;5022588;28;69255;-36
2021/11/14 12:09:44;;;;;;;;;;;;;;;28.88;74.48;100871.41;5019672;28;66337;-35
2021/11/14 12:12:21;;;;;;;;;;;;;;;28.88;74.23;100874.13;5032105;28;70242;-36
2021/11/14 12:15:06;;;;;;;;;;;;;;;28.85;74.16;100872.66;5028631;28;66223;-34
2021/11/14 12:17:36;;;;;;;;;;;;;;;28.90;74.02;100880.97;5034658;28;70367;-36
2021/11/14 12:20:17;;;;;;;;;;;;;;;28.90;74.50;100901.75;5034303;28;65656;-36
2021/11/14 12:23:20;;;;;;;;;;;;;;;28.85;74.90;100910.47;5035881;28;72740;-36
2021/11/14 12:25:54;;;;;;;;;;;;;;;28.92;74.75;100916.72;5028882;28;66609;-36
2021/11/14 12:28:27;;;;;;;;;;;;;;;28.77;74.91;100886.34;5043576;28;69562;-35
2021/11/14 12:33:45;;;;;;;;;;;;;;;28.77;73.93;100897.16;5034798;28;69993;-36
2021/11/14 12:36:38;;;;;;;;;;;;;;;29.03;73.07;100933.31;5035105;28;67075;-36
2021/11/14 12:39:11;;;;;;;;;;;;;;;29.11;72.35;100935.84;5028888;28;68862;-35
2021/11/14 12:41:51;;;;;;;;;;;;;;;29.13;72.27;100939.19;5033611;28;66226;-35
2021/11/14 12:44:36;;;;;;;;;;;;;;;29.16;72.19;100944.16;5036224;28;69824;-36
2021/11/14 12:47:19;;;;;;;;;;;;;;;29.20;71.47;100948.13;5033621;28;66663;-35
2021/11/14 12:49:52;;;;;;;;;;;;;;;29.20;71.84;100950.84;5032700;28;70043;-35
2021/11/14 12:52:29;;;;;;;;;;;;;;;29.23;71.90;100961.22;5033846;28;66310;-35
2021/11/14 12:55:10;;;;;;;;;;;;;;;29.22;71.88;100964.94;5034496;28;69425;-35
2021/11/14 12:57:56;;;;;;;;;;;;;;;29.23;71.83;100971.19;5035748;28;65561;-36
2021/11/14 13:00:42;;;;;;;;;;;;;;;29.24;72.11;100979.09;5034180;28;69806;-36
2021/11/14 13:03:21;;;;;;;;;;;;;;;29.21;71.42;100974.09;5031283;28;66058;-36
2021/11/14 13:05:58;;;;;;;;;;;;;;;29.26;71.98;100990.53;5033485;28;69360;-36
2021/11/14 13:08:30;;;;;;;;;;;;;;;29.27;72.10;100989.47;5031982;28;65509;-36
2021/11/14 13:11:52;;;;;;;;;;;;;;;29.28;71.75;100990.28;5033365;28;70163;-36
2021/11/14 13:14:56;;;;;;;;;;;;;;;29.30;71.74;100999.88;5029372;28;65920;-36
2021/11/14 13:17:55;;;;;;;;;;;;;;;29.32;71.42;101005.06;5032627;28;69354;-34
2021/11/14 13:20:32;;;;;;;;;;;;;;;29.33;71.48;101007.56;5014977;28;66297;-36